Time;durP1;ratioP1;P1;durP2;ratioP2;P2;SDS_P1;SDS_P2;PMS_P1;PMS_P2;Temp;Humidity;BMP_temperature;BMP_pressure;BME280_temperature;BME280_humidity;BME280_pressure;Samples;Min_cycle;Max_cycle;Signal;HPM_P1;HPM_P2
2023/09/14 00:00:55;;;;;;;30.10;17.80;;;;;;;13.03;100.00;101062.55;106032;1251;72623;-73
2023/09/14 00:03:22;;;;;;;31.90;18.60;;;;;;;13.00;100.00;101066.26;105831;1253;61869;-72
2023/09/14 00:05:49;;;;;;;32.40;18.60;;;;;;;12.99;100.00;101071.02;105938;1250;59605;-70
2023/09/14 00:08:16;;;;;;;31.60;20.30;;;;;;;12.98;100.00;101070.74;105965;1253;73202;-76
2023/09/14 00:10:43;;;;;;;31.10;19.00;;;;;;;12.96;100.00;101063.86;105890;1253;62348;-72
2023/09/14 00:13:10;;;;;;;31.70;18.80;;;;;;;12.93;100.00;101064.20;105945;1253;72672;-73
2023/09/14 00:15:40;;;;;;;37.90;19.40;;;;;;;12.89;100.00;101061.69;105931;1253;62447;-72
2023/09/14 00:18:07;;;;;;;30.50;17.40;;;;;;;12.84;100.00;101063.34;106033;1253;59580;-72
2023/09/14 00:20:34;;;;;;;27.50;17.70;;;;;;;12.83;100.00;101065.01;106056;1251;71861;-71
2023/09/14 00:23:03;;;;;;;29.20;17.30;;;;;;;12.81;100.00;101061.64;105981;1250;63681;-71
2023/09/14 00:25:30;;;;;;;23.40;17.00;;;;;;;12.78;100.00;101063.55;105986;1253;72590;-71
2023/09/14 00:27:57;;;;;;;34.00;17.20;;;;;;;12.77;100.00;101070.10;105957;1253;61990;-70
2023/09/14 00:30:24;;;;;;;33.40;18.70;;;;;;;12.77;100.00;101074.48;105864;1252;60107;-73
2023/09/14 00:32:52;;;;;;;25.60;16.90;;;;;;;12.78;100.00;101072.70;106076;1253;73047;-70
2023/09/14 00:35:19;;;;;;;27.00;17.30;;;;;;;12.78;100.00;101069.36;105892;1251;63018;-74
2023/09/14 00:37:46;;;;;;;29.80;17.60;;;;;;;12.76;100.00;101066.30;106041;1251;72609;-72
2023/09/14 00:40:14;;;;;;;26.30;16.80;;;;;;;12.75;100.00;101064.48;105976;1250;60433;-73
2023/09/14 00:42:45;;;;;;;30.80;16.40;;;;;;;12.73;100.00;101059.65;105919;1253;60356;-72
2023/09/14 00:45:14;;;;;;;29.90;17.20;;;;;;;12.70;100.00;101054.95;105971;1252;71869;-72
2023/09/14 00:47:44;;;;;;;28.40;17.70;;;;;;;12.66;100.00;101052.20;105885;1253;62707;-72
2023/09/14 00:50:15;;;;;;;26.90;16.90;;;;;;;12.65;100.00;101046.83;105903;1253;71335;-71
2023/09/14 00:52:42;;;;;;;25.60;15.90;;;;;;;12.68;100.00;101040.84;105923;1253;63222;-70
2023/09/14 00:55:10;;;;;;;27.40;17.60;;;;;;;12.74;100.00;101041.70;105932;1253;59532;-72
2023/09/14 00:57:37;;;;;;;28.10;17.60;;;;;;;12.82;100.00;101046.64;106097;1251;73090;-72
2023/09/14 01:00:11;;;;;;;36.80;17.20;;;;;;;12.90;100.00;101053.36;105868;1251;62416;-73
2023/09/14 01:02:39;;;;;;;24.70;16.80;;;;;;;12.95;100.00;101053.90;105973;1253;72753;-71
2023/09/14 01:05:06;;;;;;;28.10;17.20;;;;;;;12.97;100.00;101054.48;105980;1253;61138;-71
2023/09/14 01:07:34;;;;;;;28.40;17.40;;;;;;;12.97;100.00;101042.87;106079;1251;60258;-73
2023/09/14 01:10:01;;;;;;;29.40;17.00;;;;;;;12.99;100.00;101035.55;106082;1252;71893;-73
2023/09/14 01:12:29;;;;;;;24.90;16.70;;;;;;;13.01;100.00;101037.88;105924;1253;63704;-72
2023/09/14 01:15:15;;;;;;;28.70;16.10;;;;;;;13.03;100.00;101038.31;105958;1251;72544;-72
2023/09/14 01:18:02;;;;;;;23.20;15.50;;;;;;;13.03;100.00;101033.39;105795;1256;60972;-71
2023/09/14 01:20:38;;;;;;;29.50;16.40;;;;;;;13.02;100.00;101032.58;105913;1250;60428;-71
2023/09/14 01:23:43;;;;;;;26.80;15.50;;;;;;;12.99;100.00;101035.42;105945;1256;73952;-71
2023/09/14 01:26:10;;;;;;;22.00;15.10;;;;;;;12.97;100.00;101034.10;105993;1250;62375;-70
2023/09/14 01:28:37;;;;;;;29.10;17.20;;;;;;;12.99;100.00;101040.86;105739;1251;73951;-71
2023/09/14 01:31:04;;;;;;;35.80;16.10;;;;;;;13.00;100.00;101045.33;105977;1253;61991;-71
2023/09/14 01:33:31;;;;;;;27.90;17.10;;;;;;;13.01;100.00;101048.05;105918;1251;60459;-72
2023/09/14 01:36:25;;;;;;;29.20;17.00;;;;;;;13.01;100.00;101057.71;106014;1249;72542;-71
2023/09/14 01:38:53;;;;;;;26.30;15.30;;;;;;;12.98;100.00;101058.98;106062;1256;62356;-70
2023/09/14 01:41:20;;;;;;;26.70;14.50;;;;;;;12.93;100.00;101047.39;106071;1251;72790;-73
2023/09/14 01:43:49;;;;;;;30.90;15.30;;;;;;;12.84;100.00;101042.98;106032;1257;61036;-72
2023/09/14 01:46:16;;;;;;;27.50;15.60;;;;;;;12.77;100.00;101032.55;106015;1257;60463;-75
2023/09/14 01:48:44;;;;;;;25.80;15.40;;;;;;;12.73;100.00;101032.09;106055;1251;73750;-73
2023/09/14 01:51:11;;;;;;;23.10;14.00;;;;;;;12.72;100.00;101036.05;106070;1251;62675;-72
2023/09/14 01:53:38;;;;;;;23.10;15.10;;;;;;;12.71;100.00;101036.44;105932;1253;73151;-72
2023/09/14 01:56:05;;;;;;;25.80;15.60;;;;;;;12.72;100.00;101033.80;105808;1253;60528;-71
2023/09/14 01:58:33;;;;;;;24.10;15.90;;;;;;;12.73;100.00;101027.39;105856;1253;60536;-73
2023/09/14 02:01:00;;;;;;;24.50;15.10;;;;;;;12.75;100.00;101020.92;105744;1252;73697;-71
2023/09/14 02:03:27;;;;;;;27.80;15.70;;;;;;;12.77;100.00;101024.36;105779;1251;63674;-73
2023/09/14 02:06:01;;;;;;;24.10;16.00;;;;;;;12.76;100.00;101035.06;105875;1253;72561;-74
2023/09/14 02:08:32;;;;;;;24.00;14.60;;;;;;;12.73;100.00;101035.27;105854;1253;61898;-73
2023/09/14 02:10:58;;;;;;;24.70;16.40;;;;;;;12.70;100.00;101033.20;105858;1250;60524;-72
2023/09/14 02:13:27;;;;;;;27.60;16.20;;;;;;;12.66;100.00;101028.85;105917;1251;73869;-73
2023/09/14 02:15:54;;;;;;;21.10;14.50;;;;;;;12.63;100.00;101031.86;105988;1253;63902;-72
2023/09/14 02:18:21;;;;;;;24.70;15.30;;;;;;;12.59;100.00;101032.61;106024;1251;72742;-71
2023/09/14 02:20:48;;;;;;;24.90;15.80;;;;;;;12.55;100.00;101032.73;105903;1253;61921;-73
2023/09/14 02:23:17;;;;;;;23.40;15.90;;;;;;;12.51;100.00;101033.11;105876;1252;60450;-72
2023/09/14 02:25:44;;;;;;;26.70;16.00;;;;;;;12.49;100.00;101035.75;105849;1257;73871;-73
2023/09/14 02:28:11;;;;;;;29.20;16.20;;;;;;;12.48;100.00;101041.77;105962;1253;63910;-70
2023/09/14 02:30:39;;;;;;;25.40;16.80;;;;;;;12.47;100.00;101047.59;105846;1255;72739;-72
2023/09/14 02:33:07;;;;;;;31.70;16.90;;;;;;;12.46;100.00;101053.80;106060;1254;62036;-72
2023/09/14 02:35:35;;;;;;;25.50;16.00;;;;;;;12.40;100.00;101054.98;105884;1253;60360;-72
2023/09/14 02:38:02;;;;;;;25.60;15.80;;;;;;;12.35;100.00;101049.54;105811;1255;73858;-74
2023/09/14 02:40:30;;;;;;;32.20;16.90;;;;;;;12.31;100.00;101044.02;105818;1255;64020;-70
2023/09/14 02:42:57;;;;;;;24.90;15.90;;;;;;;12.26;100.00;101044.13;105882;1251;72698;-73
2023/09/14 02:45:24;;;;;;;31.20;16.80;;;;;;;12.23;100.00;101044.48;105977;1251;60458;-72
2023/09/14 02:47:51;;;;;;;29.10;16.70;;;;;;;12.19;100.00;101038.90;105851;1251;60358;-70
2023/09/14 02:50:18;;;;;;;31.00;17.40;;;;;;;12.17;100.00;101046.61;105897;1251;73859;-70
2023/09/14 02:52:45;;;;;;;23.50;15.20;;;;;;;12.14;100.00;101050.09;106004;1253;63924;-69
2023/09/14 02:55:13;;;;;;;29.40;16.40;;;;;;;12.12;100.00;101053.22;105933;1251;72893;-70
2023/09/14 02:57:40;;;;;;;28.90;16.40;;;;;;;12.10;100.00;101057.16;105817;1253;60909;-71
2023/09/14 03:00:07;;;;;;;28.00;16.20;;;;;;;12.08;100.00;101051.14;105838;1251;60448;-71
2023/09/14 03:02:35;;;;;;;25.60;14.50;;;;;;;12.06;100.00;101050.21;105917;1255;73836;-71
2023/09/14 03:05:02;;;;;;;31.10;16.70;;;;;;;12.03;100.00;101051.24;105902;1253;62678;-71
2023/09/14 03:07:30;;;;;;;28.80;15.20;;;;;;;12.02;100.00;101057.59;105814;1251;72554;-70
2023/09/14 03:09:56;;;;;;;33.10;17.90;;;;;;;12.02;100.00;101056.42;105810;1256;60533;-71
2023/09/14 03:12:23;;;;;;;25.40;15.60;;;;;;;12.01;100.00;101059.43;105791;1257;60437;-71
2023/09/14 03:14:50;;;;;;;29.90;16.90;;;;;;;12.01;100.00;101064.68;105869;1251;73816;-70
2023/09/14 03:17:17;;;;;;;30.90;16.50;;;;;;;12.01;100.00;101067.65;105843;1253;63741;-72
2023/09/14 03:19:44;;;;;;;26.90;14.50;;;;;;;12.03;100.00;101070.90;105740;1251;71315;-71
2023/09/14 03:22:11;;;;;;;32.90;16.50;;;;;;;12.04;100.00;101074.16;105762;1256;61810;-72
2023/09/14 03:24:38;;;;;;;29.60;17.90;;;;;;;12.06;100.00;101077.58;105796;1255;60360;-75
2023/09/14 03:27:05;;;;;;;30.30;19.60;;;;;;;12.06;100.00;101080.33;105846;1251;74320;-73
2023/09/14 03:29:33;;;;;;;27.50;16.60;;;;;;;12.06;100.00;101081.60;105892;1253;62843;-73
2023/09/14 03:32:00;;;;;;;26.70;16.40;;;;;;;12.06;100.00;101073.70;105893;1251;71339;-74
2023/09/14 03:34:28;;;;;;;37.00;20.10;;;;;;;12.07;100.00;101068.02;105968;1251;61873;-72
2023/09/14 03:36:55;;;;;;;30.40;17.80;;;;;;;12.08;100.00;101070.77;105888;1250;60444;-72
2023/09/14 03:39:22;;;;;;;34.80;17.40;;;;;;;12.10;100.00;101072.45;105808;1251;73603;-73
2023/09/14 03:41:49;;;;;;;32.30;17.20;;;;;;;12.11;100.00;101074.48;105843;1257;63829;-72
2023/09/14 03:44:16;;;;;;;33.10;18.20;;;;;;;12.12;100.00;101075.50;105947;1251;72739;-73
2023/09/14 03:46:43;;;;;;;37.30;18.00;;;;;;;12.12;100.00;101073.37;105951;1253;62000;-72
2023/09/14 03:49:11;;;;;;;30.60;17.10;;;;;;;12.12;100.00;101072.66;105994;1251;60460;-72
2023/09/14 03:51:38;;;;;;;28.30;16.30;;;;;;;12.11;100.00;101074.11;105881;1251;73837;-74
2023/09/14 03:54:05;;;;;;;25.50;17.20;;;;;;;12.10;100.00;101074.33;105938;1251;63243;-71
2023/09/14 03:56:35;;;;;;;36.30;17.40;;;;;;;12.12;100.00;101075.45;105811;1251;71493;-71
2023/09/14 03:59:02;;;;;;;29.60;17.80;;;;;;;12.14;100.00;101078.30;105853;1253;62163;-74
2023/09/14 04:01:29;;;;;;;37.70;18.60;;;;;;;12.18;100.00;101080.38;105853;1249;60474;-71
2023/09/14 04:03:56;;;;;;;33.80;18.40;;;;;;;12.20;100.00;101087.60;105902;1251;73905;-71
2023/09/14 04:06:23;;;;;;;30.40;19.20;;;;;;;12.23;100.00;101086.70;105914;1253;63787;-72
2023/09/14 04:08:50;;;;;;;42.40;20.70;;;;;;;12.26;100.00;101089.67;105884;1257;72599;-73
2023/09/14 04:11:17;;;;;;;31.40;19.70;;;;;;;12.30;100.00;101084.93;105874;1253;61850;-73
2023/09/14 04:13:44;;;;;;;37.00;19.20;;;;;;;12.32;100.00;101078.45;105896;1251;60449;-71
2023/09/14 04:16:11;;;;;;;32.30;19.60;;;;;;;12.37;100.00;101078.02;105947;1253;73824;-71
2023/09/14 04:18:40;;;;;;;33.90;18.10;;;;;;;12.42;100.00;101075.92;106019;1253;62516;-71
2023/09/14 04:21:07;;;;;;;35.20;19.00;;;;;;;12.48;100.00;101075.91;105903;1253;72734;-72
2023/09/14 04:23:34;;;;;;;34.90;19.90;;;;;;;12.53;100.00;101077.90;105892;1257;61628;-73
2023/09/14 04:26:01;;;;;;;36.00;19.10;;;;;;;12.58;100.00;101071.65;105971;1251;60635;-72
2023/09/14 04:28:29;;;;;;;37.20;18.90;;;;;;;12.63;100.00;101072.55;105946;1251;73886;-72
2023/09/14 04:30:58;;;;;;;34.30;21.70;;;;;;;12.69;100.00;101072.92;105903;1253;63919;-73
2023/09/14 04:33:25;;;;;;;27.60;17.60;;;;;;;12.75;100.00;101073.23;105875;1251;72731;-72
2023/09/14 04:35:59;;;;;;;30.00;16.90;;;;;;;12.81;100.00;101066.17;105799;1257;62059;-71
2023/09/14 04:38:26;;;;;;;29.30;17.50;;;;;;;12.91;100.00;101061.85;105942;1252;60348;-72
2023/09/14 04:40:53;;;;;;;36.00;18.60;;;;;;;13.01;100.00;101064.60;105907;1254;74411;-72
2023/09/14 04:43:22;;;;;;;34.20;17.80;;;;;;;13.11;100.00;101065.38;105954;1253;62569;-73
2023/09/14 04:45:48;;;;;;;32.40;18.10;;;;;;;13.22;100.00;101063.41;105923;1251;71289;-71
2023/09/14 04:48:15;;;;;;;35.50;17.60;;;;;;;13.34;100.00;101064.45;105931;1257;61960;-73
2023/09/14 04:50:43;;;;;;;32.50;18.70;;;;;;;13.48;100.00;101064.09;106013;1251;60540;-71
2023/09/14 04:53:10;;;;;;;45.20;18.90;;;;;;;13.63;100.00;101064.70;105989;1256;73855;-72
2023/09/14 04:55:36;;;;;;;35.40;20.70;;;;;;;13.81;100.00;101062.95;106032;1250;62783;-74
2023/09/14 04:58:04;;;;;;;42.80;20.90;;;;;;;14.04;100.00;101065.81;106040;1251;72658;-72
2023/09/14 05:00:33;;;;;;;36.00;18.60;;;;;;;14.38;100.00;101062.30;105972;1256;62054;-71
2023/09/14 05:03:03;;;;;;;56.30;20.40;;;;;;;14.85;100.00;101066.46;106020;1251;60535;-72
2023/09/14 05:05:32;;;;;;;43.30;19.40;;;;;;;15.46;100.00;101068.73;106125;1252;73869;-72
2023/09/14 05:07:59;;;;;;;38.40;19.40;;;;;;;16.17;100.00;101063.98;106167;1251;62366;-74
2023/09/14 05:10:26;;;;;;;42.00;18.70;;;;;;;16.90;100.00;101064.66;106096;1251;72688;-72
2023/09/14 05:12:53;;;;;;;34.40;18.70;;;;;;;17.60;100.00;101065.56;105897;1256;60466;-71
2023/09/14 05:15:21;;;;;;;39.70;19.20;;;;;;;18.27;100.00;101068.48;105961;1253;60414;-73
2023/09/14 05:17:49;;;;;;;35.20;19.20;;;;;;;18.90;100.00;101061.67;105971;1251;73939;-72
2023/09/14 05:20:17;;;;;;;35.10;19.00;;;;;;;19.51;100.00;101065.80;105931;1253;64013;-73
2023/09/14 05:22:44;;;;;;;28.20;17.50;;;;;;;20.08;100.00;101064.80;105899;1253;71352;-74
2023/09/14 05:25:11;;;;;;;41.80;19.30;;;;;;;20.63;100.00;101059.14;105944;1253;61931;-73
2023/09/14 05:27:39;;;;;;;38.10;18.90;;;;;;;21.16;100.00;101062.05;105993;1250;60508;-72
2023/09/14 05:30:08;;;;;;;29.80;16.00;;;;;;;21.67;100.00;101058.49;105946;1257;73910;-73
2023/09/14 05:32:36;;;;;;;27.20;16.00;;;;;;;22.17;96.42;101059.66;106008;1250;63350;-72
2023/09/14 05:35:06;;;;;;;24.40;13.00;;;;;;;22.48;87.42;101053.23;106071;1251;72713;-70
2023/09/14 05:37:33;;;;;;;23.80;13.00;;;;;;;22.63;78.35;101052.91;106159;1251;60398;-72
2023/09/14 05:40:01;;;;;;;28.60;14.90;;;;;;;22.81;77.53;101051.09;105995;1257;60459;-71
2023/09/14 05:42:29;;;;;;;24.80;12.20;;;;;;;22.96;79.98;101050.73;106148;1250;74038;-74
2023/09/14 05:44:56;;;;;;;26.60;11.80;;;;;;;23.06;67.23;101051.80;106086;1251;62353;-75
2023/09/14 05:47:24;;;;;;;22.70;11.00;;;;;;;23.09;66.23;101044.55;106006;1254;72545;-74
2023/09/14 05:49:51;;;;;;;20.80;11.80;;;;;;;23.05;64.77;101047.15;106085;1253;60530;-72
2023/09/14 05:52:18;;;;;;;25.00;12.50;;;;;;;23.12;72.06;101045.70;106060;1253;60444;-73
2023/09/14 05:54:46;;;;;;;25.00;12.80;;;;;;;23.45;78.02;101045.34;106018;1252;73856;-74
2023/09/14 05:57:14;;;;;;;21.70;13.50;;;;;;;23.90;76.26;101042.83;105907;1257;63855;-72
2023/09/14 05:59:41;;;;;;;18.80;9.90;;;;;;;24.16;73.78;101046.50;105939;1254;72684;-73
2023/09/14 06:02:08;;;;;;;20.40;10.20;;;;;;;24.23;60.95;101044.88;106070;1254;60532;-72
2023/09/14 06:04:35;;;;;;;16.50;9.60;;;;;;;24.20;61.53;101043.34;106000;1251;60553;-71
2023/09/14 06:07:03;;;;;;;20.50;10.40;;;;;;;24.16;60.51;101045.44;105934;1251;72761;-72
2023/09/14 06:09:30;;;;;;;19.20;10.00;;;;;;;24.17;60.44;101042.25;105922;1253;64903;-72
2023/09/14 06:11:56;;;;;;;22.50;10.70;;;;;;;24.32;62.84;101043.38;105956;1253;72818;-69
2023/09/14 06:14:23;;;;;;;21.00;11.40;;;;;;;24.58;64.18;101042.10;106008;1253;60450;-72
2023/09/14 06:16:50;;;;;;;17.00;10.40;;;;;;;25.00;64.57;101046.56;105978;1254;60419;-73
2023/09/14 06:19:17;;;;;;;29.50;11.50;;;;;;;25.54;61.80;101044.52;106021;1250;73803;-73
2023/09/14 06:21:44;;;;;;;28.50;12.50;;;;;;;26.09;56.80;101038.17;105950;1256;63924;-72
2023/09/14 06:24:11;;;;;;;18.80;8.80;;;;;;;26.65;45.11;101035.61;106071;1254;73128;-73
2023/09/14 06:26:39;;;;;;;19.30;8.80;;;;;;;27.19;40.96;101034.48;105966;1253;60520;-72
2023/09/14 06:29:06;;;;;;;21.00;8.70;;;;;;;27.65;38.39;101036.09;106045;1251;60905;-75
2023/09/14 06:31:33;;;;;;;15.40;7.90;;;;;;;28.12;39.60;101036.25;106054;1254;73687;-73
2023/09/14 06:34:00;;;;;;;17.00;8.10;;;;;;;28.64;38.72;101036.77;105888;1257;64362;-74
2023/09/14 06:36:27;;;;;;;18.20;7.00;;;;;;;29.04;36.89;101039.48;106112;1251;72531;-74
2023/09/14 06:38:54;;;;;;;12.90;7.10;;;;;;;29.34;33.16;101043.12;105963;1257;60460;-74
2023/09/14 06:41:21;;;;;;;12.20;6.60;;;;;;;29.50;31.67;101043.06;105948;1251;60452;-73
2023/09/14 06:43:48;;;;;;;11.60;6.00;;;;;;;29.61;31.19;101040.70;105960;1253;73540;-73
2023/09/14 06:46:15;;;;;;;15.30;6.80;;;;;;;29.76;31.33;101042.23;106018;1251;62557;-74
2023/09/14 06:48:42;;;;;;;12.90;6.80;;;;;;;30.01;32.18;101046.61;105978;1256;73011;-73
2023/09/14 06:51:10;;;;;;;15.30;5.60;;;;;;;30.28;31.90;101051.02;105919;1253;60449;-72
2023/09/14 06:53:38;;;;;;;11.70;7.30;;;;;;;30.57;29.58;101055.52;106051;1254;60536;-76
2023/09/14 06:56:06;;;;;;;12.20;6.70;;;;;;;30.77;28.39;101056.17;105934;1251;73875;-73
2023/09/14 06:58:33;;;;;;;10.70;6.60;;;;;;;30.81;28.03;101061.52;106010;1253;63947;-74
2023/09/14 07:01:05;;;;;;;11.30;6.20;;;;;;;30.88;27.25;101059.44;106080;1251;72706;-73
2023/09/14 07:03:34;;;;;;;12.10;6.60;;;;;;;30.92;27.52;101053.45;105982;1251;60450;-73
2023/09/14 07:06:02;;;;;;;16.60;6.60;;;;;;;31.07;26.92;101054.10;105950;1253;60434;-72
2023/09/14 07:08:29;;;;;;;11.30;6.50;;;;;;;31.27;26.87;101052.67;105963;1256;73798;-74
2023/09/14 07:10:56;;;;;;;9.50;6.50;;;;;;;31.35;25.61;101054.67;105934;1253;64498;-74
2023/09/14 07:13:24;;;;;;;13.60;5.90;;;;;;;31.06;25.89;101047.39;106039;1251;72708;-74
2023/09/14 07:15:52;;;;;;;40.40;22.50;;;;;;;30.69;27.40;101048.91;106054;1255;60530;-76
2023/09/14 07:18:29;;;;;;;18.70;9.20;;;;;;;30.36;27.61;101051.15;105919;1254;60882;-73
2023/09/14 07:20:57;;;;;;;10.60;6.10;;;;;;;29.89;26.98;101047.16;105967;1251;73825;-72
2023/09/14 07:23:24;;;;;;;11.10;6.40;;;;;;;29.23;27.50;101041.15;106078;1250;62263;-73
2023/09/14 07:25:52;;;;;;;14.30;5.60;;;;;;;28.71;28.24;101050.60;106204;1254;72269;-73
2023/09/14 07:28:20;;;;;;;9.50;5.90;;;;;;;28.27;28.62;101051.01;106126;1249;60752;-74
2023/09/14 07:30:48;;;;;;;11.90;5.50;;;;;;;28.05;29.30;101058.54;106094;1253;60478;-76
2023/09/14 07:33:15;;;;;;;10.10;6.30;;;;;;;28.01;28.93;101055.65;106039;1253;73726;-73
2023/09/14 07:35:42;;;;;;;15.20;6.20;;;;;;;28.14;28.99;101054.91;105997;1253;63897;-71
2023/09/14 07:38:10;;;;;;;13.50;6.10;;;;;;;28.49;28.90;101049.91;106059;1254;73874;-73
2023/09/14 07:40:37;;;;;;;11.10;5.80;;;;;;;29.02;29.07;101050.19;105940;1263;60587;-72
2023/09/14 07:43:04;;;;;;;13.30;5.40;;;;;;;29.64;28.63;101045.86;105953;1256;60431;-75
2023/09/14 07:45:34;;;;;;;11.70;5.90;;;;;;;30.19;28.50;101047.91;105889;1252;73686;-73
2023/09/14 07:48:03;;;;;;;10.70;5.80;;;;;;;30.43;27.18;101047.98;105983;1254;65184;-73
2023/09/14 07:50:34;;;;;;;8.60;5.80;;;;;;;30.38;26.93;101046.82;105974;1251;73635;-74
2023/09/14 07:53:03;;;;;;;10.10;5.90;;;;;;;30.46;27.74;101048.41;105982;1251;60459;-77
2023/09/14 07:55:30;;;;;;;13.30;5.50;;;;;;;30.79;28.15;101047.92;106148;1255;60569;-76
2023/09/14 07:57:58;;;;;;;20.90;12.80;;;;;;;31.09;26.34;101049.45;105903;1254;74745;-75
2023/09/14 08:00:25;;;;;;;9.80;6.50;;;;;;;31.06;26.47;101047.27;106096;1253;62993;-76
2023/09/14 08:02:53;;;;;;;6.00;5.20;;;;;;;30.83;26.52;101049.10;105895;1253;72397;-75
2023/09/14 08:05:20;;;;;;;12.60;6.00;;;;;;;30.47;26.65;101049.83;105986;1254;60469;-75
2023/09/14 08:07:47;;;;;;;12.20;5.40;;;;;;;30.02;26.92;101046.94;106029;1251;60637;-74
2023/09/14 08:10:15;;;;;;;9.70;5.80;;;;;;;29.52;27.26;101046.15;105947;1253;74000;-75
2023/09/14 08:12:44;;;;;;;8.90;6.70;;;;;;;29.18;27.87;101040.97;105946;1254;63631;-74
2023/09/14 08:15:11;;;;;;;10.20;5.70;;;;;;;29.02;28.64;101041.16;105974;1253;72917;-73
2023/09/14 08:17:38;;;;;;;13.70;6.90;;;;;;;29.01;28.98;101040.48;105924;1253;60777;-74
2023/09/14 08:20:06;;;;;;;11.80;5.70;;;;;;;29.05;28.67;101042.50;106041;1251;61384;-71
2023/09/14 08:22:33;;;;;;;8.10;5.90;;;;;;;29.01;28.55;101040.45;106008;1253;73801;-73
2023/09/14 08:25:00;;;;;;;13.20;6.10;;;;;;;29.03;28.84;101044.86;106077;1253;63417;-73
2023/09/14 08:27:28;;;;;;;10.00;5.60;;;;;;;29.09;28.90;101044.47;106032;1251;72389;-76
2023/09/14 08:29:56;;;;;;;8.70;5.90;;;;;;;29.21;28.34;101044.02;106088;1253;61746;-73
2023/09/14 08:32:23;;;;;;;8.50;5.30;;;;;;;29.20;27.95;101039.95;106087;1254;61504;-76
2023/09/14 08:34:50;;;;;;;6.20;4.60;;;;;;;29.18;28.31;101036.33;106214;1251;74218;-71
2023/09/14 08:37:17;;;;;;;15.70;6.10;;;;;;;29.09;28.37;101031.36;105950;1254;62983;-74
2023/09/14 08:39:45;;;;;;;9.40;6.00;;;;;;;29.02;28.73;101032.23;105985;1253;72774;-76
2023/09/14 08:42:13;;;;;;;17.40;6.60;;;;;;;28.90;28.33;101027.16;105904;1257;60543;-72
2023/09/14 08:44:40;;;;;;;12.10;4.90;;;;;;;28.79;29.39;101020.06;105785;1255;60424;-74
2023/09/14 08:47:07;;;;;;;6.60;5.00;;;;;;;28.70;28.89;101017.16;105846;1252;73825;-74
2023/09/14 08:49:36;;;;;;;9.40;5.60;;;;;;;28.66;28.92;101015.38;105616;1259;64011;-76
2023/09/14 08:52:03;;;;;;;16.60;6.70;;;;;;;28.58;29.10;101017.50;105787;1256;72557;-73
2023/09/14 08:54:30;;;;;;;6.40;5.40;;;;;;;28.47;29.58;101015.53;105751;1259;61591;-73
2023/09/14 08:56:56;;;;;;;11.60;5.80;;;;;;;28.34;28.99;101017.94;105651;1257;60617;-76
2023/09/14 08:59:24;;;;;;;6.60;5.20;;;;;;;28.38;28.85;101014.09;105734;1252;75030;-75
2023/09/14 09:01:51;;;;;;;10.90;5.50;;;;;;;28.56;29.37;101008.64;105665;1260;63840;-73
2023/09/14 09:04:18;;;;;;;9.00;5.60;;;;;;;28.81;29.59;101006.25;105729;1256;73644;-74
2023/09/14 09:06:45;;;;;;;8.60;5.30;;;;;;;28.87;29.06;101005.02;106032;1256;60454;-76
2023/09/14 09:09:14;;;;;;;8.30;5.00;;;;;;;28.86;29.12;101004.52;105762;1257;60478;-71
2023/09/14 09:11:42;;;;;;;8.20;5.40;;;;;;;29.03;29.06;101003.94;105906;1256;75054;-75
2023/09/14 09:14:09;;;;;;;8.10;5.10;;;;;;;29.31;28.76;100999.72;105910;1255;62740;-77
2023/09/14 09:16:36;;;;;;;10.20;5.30;;;;;;;29.73;28.13;100994.14;105931;1255;72652;-74
2023/09/14 09:19:04;;;;;;;11.40;5.60;;;;;;;30.09;28.09;100998.07;105713;1260;60435;-73
2023/09/14 09:24:26;;;;;;;9.10;5.10;;;;;;;30.96;26.45;100992.81;102726;1294;601116;-73
2023/09/14 09:26:55;;;;;;;6.80;5.40;;;;;;;31.30;25.78;100993.91;105072;1269;60128;-72
2023/09/14 09:29:23;;;;;;;9.80;6.20;;;;;;;31.70;26.00;100995.30;105350;1267;61040;-75
2023/09/14 09:31:50;;;;;;;6.90;5.40;;;;;;;31.93;25.27;100988.88;105161;1260;75012;-76
2023/09/14 09:34:28;;;;;;;16.70;6.50;;;;;;;32.10;25.03;100994.73;105288;1265;64984;-76
2023/09/14 09:36:59;;;;;;;9.20;5.70;;;;;;;32.10;24.62;100993.77;105636;1262;203579;-75
2023/09/14 09:39:27;;;;;;;6.10;5.50;;;;;;;31.97;25.05;100994.02;105931;1254;59215;-75
2023/09/14 09:41:54;;;;;;;7.70;5.50;;;;;;;32.04;25.44;100992.67;105852;1251;59378;-73
2023/09/14 09:44:27;;;;;;;9.70;5.70;;;;;;;32.25;25.45;100989.75;105702;1251;72405;-74
2023/09/14 09:47:12;;;;;;;6.90;6.10;;;;;;;32.63;25.52;100982.16;102368;1296;601000;-74
2023/09/14 09:49:41;;;;;;;9.10;5.90;;;;;;;32.97;25.32;100978.77;104916;1270;60101;-75
2023/09/14 09:52:10;;;;;;;7.10;6.40;;;;;;;33.29;24.75;100974.12;104919;1270;60763;-76
2023/09/14 09:54:38;;;;;;;10.70;6.30;;;;;;;33.68;24.84;100974.99;104904;1266;72555;-73
2023/09/14 09:57:07;;;;;;;6.90;6.00;;;;;;;34.02;24.33;100974.29;104857;1270;64361;-76
2023/09/14 09:59:35;;;;;;;6.40;5.80;;;;;;;34.16;23.88;100972.38;104610;1266;71233;-74
2023/09/14 10:02:02;;;;;;;11.10;6.30;;;;;;;34.27;24.05;100967.11;104721;1268;183885;-75
2023/09/14 10:04:30;;;;;;;10.50;6.40;;;;;;;34.40;23.43;100964.86;105075;1261;60032;-75
2023/09/14 10:06:59;;;;;;;10.60;6.10;;;;;;;34.46;23.38;100958.17;105187;1265;72964;-75
2023/09/14 10:09:32;;;;;;;10.40;6.70;;;;;;;34.51;23.37;100962.80;105223;1261;62966;-76
2023/09/14 10:12:03;;;;;;;12.80;7.30;;;;;;;34.48;23.38;100959.30;105163;1265;71844;-74
2023/09/14 10:14:31;;;;;;;11.10;7.40;;;;;;;34.50;22.86;100963.11;105279;1261;61173;-71
2023/09/14 10:16:58;;;;;;;10.70;7.10;;;;;;;34.46;22.99;100959.21;105141;1265;59622;-74
2023/09/14 10:19:26;;;;;;;9.20;6.90;;;;;;;34.53;23.14;100958.73;104973;1260;73282;-74
2023/09/14 10:21:53;;;;;;;9.10;7.00;;;;;;;34.64;23.02;100952.23;105120;1263;62516;-74
2023/09/14 10:24:22;;;;;;;11.10;7.90;;;;;;;34.73;23.08;100956.27;104963;1267;74822;-73
2023/09/14 10:26:49;;;;;;;15.30;7.50;;;;;;;34.84;23.45;100948.12;105286;1256;60808;-75
2023/09/14 10:29:16;;;;;;;8.70;7.40;;;;;;;34.97;23.36;100946.98;105403;1260;61175;-74
2023/09/14 10:31:44;;;;;;;9.70;7.10;;;;;;;35.14;23.67;100947.55;105753;1251;71825;-75
2023/09/14 10:34:11;;;;;;;8.80;5.60;;;;;;;35.35;24.01;100948.70;105733;1255;62371;-77
2023/09/14 10:36:39;;;;;;;11.80;5.30;;;;;;;35.53;23.09;100949.30;105749;1253;70649;-77
2023/09/14 10:39:07;;;;;;;7.40;5.70;;;;;;;35.60;23.25;100941.89;105935;1256;62281;-74
2023/09/14 10:41:34;;;;;;;11.60;5.20;;;;;;;35.62;23.29;100935.64;106203;1251;60799;-73
2023/09/14 10:44:04;;;;;;;8.10;5.50;;;;;;;35.63;23.28;100930.10;107467;1257;73571;-72
2023/09/14 10:46:35;;;;;;;8.00;5.70;;;;;;;35.68;23.25;100928.27;106612;1253;63705;-75
2023/09/14 10:49:03;;;;;;;6.70;4.30;;;;;;;35.81;23.66;100927.36;106035;1256;72774;-75
2023/09/14 10:51:30;;;;;;;8.60;5.20;;;;;;;35.87;23.12;100927.38;105617;1258;60058;-75
2023/09/14 10:54:00;;;;;;;6.60;5.30;;;;;;;35.84;23.05;100924.00;105903;1256;60108;-73
2023/09/14 10:56:31;;;;;;;10.10;4.80;;;;;;;35.79;23.22;100919.56;105819;1253;73740;-74
2023/09/14 10:59:08;;;;;;;8.30;5.00;;;;;;;35.79;23.52;100921.70;105968;1251;65104;-74
2023/09/14 11:01:50;;;;;;;5.90;4.70;;;;;;;35.87;23.16;100921.10;105888;1253;71889;-79
2023/09/14 11:04:22;;;;;;;8.50;4.70;;;;;;;36.00;23.02;100921.75;105729;1255;61864;-74
2023/09/14 11:06:55;;;;;;;9.40;4.70;;;;;;;36.09;22.69;100917.21;105934;1256;59691;-77
2023/09/14 11:09:24;;;;;;;8.40;4.20;;;;;;;36.13;22.58;100918.92;105659;1251;71616;-74